CYYJVICTORIA INTL
METARs for airports near CYYJ, sorted by distance:
N 0 nm 64' CYYJ 161105Z 15011G18KT 15SM -RA FEW015 SCT045 OVC059 12/12 A2994
SE 17 nm 112' KFHR 161053Z 13016G27KT 10SM FEW020 OVC080 13/09 A2997
E 20 nm 34' KORS 161055Z 17017G24KT 10SM FEW055 OVC070 14/10 A2994
NW 30 nm 92' CYCD 160400Z 12008G15KT 080V160 6SM -RA BR SCT008 BKN012 BKN022 OVC045 12/12 A2999
S 30 nm 13' KNOW 161055Z 00000KT 7SM -RA SCT006 OVC100 10/10 A2993
S 31 nm 291' KCLM 161053Z 00000KT 4SM -RA BR FEW029 BKN095 BKN110 10/09 A2994
N 34 nm 14' CYVR 161100Z 07013KT 8SM RA BKN029 OVC056 11/11 A2997
SE 35 nm 47' KNUW 161056Z 13023G32KT 10SM FEW035 FEW075 BKN100 14/09 A3000
E 36 nm 171' KBLI 161053Z 10SM OVC070 14/09 A2997
E 41 nm 145' KBVS 161055Z 11007G15KT 8SM BKN038 BKN065 OVC090 13/09 A3001
SE 58 nm 141' KAWO 161056Z 12010G19KT 10SM -RA FEW055 OVC090 12/09 A3005
SW 62 nm 193' KUIL 161053Z 16009G20KT 120V200 2SM -RA BR BKN007 OVC012 12/12 A2993
SE 63 nm 606' KPAE 161053Z 15010KT 10SM -RA SCT038 BKN065 OVC085 12/09 A3006
S 74 nm 444' KPWT 161056Z 22003KT 10SM OVC033 11/11 A3007
SE 80 nm 21' KBFI 161053Z 14006KT 10SM BKN070 OVC110 13/09 A3007
NW 82 nm 425' CYPW 160200Z 11017G26KT 7SM -RA BKN010 OVC034 11/10 A2994
SE 84 nm 32' KRNT 161053Z 00000KT 10SM BKN050 OVC110 13/09 A3006
SE 84 nm 432' KSEA 161053Z 15005KT 10SM FEW042 FEW060 OVC100 12/09 A3007
S 85 nm 272' KSHN 161053Z 00000KT 10SM OVC035 12/11 A3004
NW 85 nm 84' CYQQ 161100Z 15021G30KT 2 1/2SM RA BR BKN008 OVC020 11/10 A2987
SE 89 nm 294' KTIW 161053Z 00000KT 10SM FEW050 OVC060 12/10 A3007
W 96 nm 80' CYAZ 160100Z 14011KT 1/4SM -RA FG VV002 12/12 A2991
SE 98 nm 322' KTCM 161058Z 19004KT 10SM FEW044 BKN060 OVC080 13/08 A3007
TAFs for airports near CYYJ, sorted by distance:
S 31 nm 291' KCLM KCLM 160522Z 1606/1706 00000KT 6SM -RA BR OVC090
  FM161000 VRB04KT 3SM -RA BR BKN005 OVC015
  FM161500 25003KT 3SM -RA BR OVC025
  FM170300 28004KT P6SM OVC030
SE 35 nm 47' KNUW TAF KNUW 1607/1707 15020G30KT 8000 -RA SCT014 BKN030 OVC090 640809 540209 541103 QNH2999INS
  TEMPO 1608/1612 15025G46KT 3200 -RA BR BKN008 OVC015
  FM161400 18020G35KT 9999 VCSH SCT025 OVC060 640708 540109 540903 QNH2995INS
  TEMPO 1616/1622 16015G22KT 3200 -RA BKN015 OVC030
  FM170600 20015G28KT 6000 RA BKN010 OVC035 640609 540109 QNH2993INS T08/1612Z T16/1622Z FS30014
E 36 nm 171' KBLI KBLI 160858Z 1609/1706 15010G15KT P6SM -RA SCT045 OVC070
  FM161000 15015G20KT 4SM -RA BR OVC030
  FM170300 16010KT P6SM OVC040
SE 63 nm 606' KPAE KPAE 160858Z 1609/1706 14010KT P6SM -RA SCT060 SCT080 OVC100
  FM161600 19012KT P6SM SCT020 BKN050 OVC100
  FM162300 19012KT P6SM -RA BKN022 OVC040
  FM170300 16008KT P6SM OVC050
S 74 nm 444' KPWT TAF KPWT 160522Z 1606/1706 19009KT P6SM FEW040 SCT080 SCT120
  TEMPO 1606/1610 -RA SCT025 OVC040
  FM161000 19012KT P6SM -RA BKN015 OVC030
  FM161600 19018KT P6SM SCT015 BKN040 OVC080
  FM162300 19012KT P6SM -RA BKN015 OVC030
  FM170300 20004KT P6SM OVC050
SE 80 nm 21' KBFI KBFI 160522Z 1606/1706 14007KT P6SM VCSH BKN060 OVC090
  FM160900 18008KT P6SM -RA SCT027 OVC040
  FM161600 18008KT P6SM SCT025 BKN050 OVC100
  FM162300 17008KT P6SM BKN070 OVC120
  FM170300 16005KT P6SM VCSH BKN070 OVC080
SE 84 nm 432' KSEA TAF
  AMD KSEA 160857Z 1609/1712 17006KT P6SM VCSH FEW070 BKN090 OVC110
  FM161600 19008KT P6SM SCT020 BKN050 OVC100
  FM162300 19007KT P6SM BKN070 OVC120
  FM170500 20006KT P6SM VCSH BKN050 OVC070
  FM171000 21003KT P6SM BKN025 OVC050
SE 98 nm 322' KTCM TAF KTCM 160500Z 1605/1711 20006KT 9999 OVC045 QNH3012INS
  BECMG 1611/1612 17005KT 9999 FEW060 BKN180 QNH3005INS
  BECMG 1617/1618 19010G15KT 9999 BKN100 OVC200 QNH3000INS
  BECMG 1710/1711 19006KT 9999 VCSH SCT015 OVC035 QNH2979INS TX18/1623Z TN08/1613Z

Shortcut to this page: http://wxbay.com.

Data may contain errors.